sensor_id;sensor_type;location;lat;lon;timestamp;temperature;humidity
810;DHT22;387;48.772;9.186;2024-01-15T00:01:22;-0.40;73.20
810;DHT22;387;48.772;9.186;2024-01-15T00:03:48;-0.30;73.20
810;DHT22;387;48.772;9.186;2024-01-15T00:06:13;-0.30;73.20
810;DHT22;387;48.772;9.186;2024-01-15T00:08:39;-0.30;72.90
810;DHT22;387;48.772;9.186;2024-01-15T00:11:04;-0.40;72.90
810;DHT22;387;48.772;9.186;2024-01-15T00:13:30;-0.40;73.00
810;DHT22;387;48.772;9.186;2024-01-15T00:15:55;-0.40;73.20
810;DHT22;387;48.772;9.186;2024-01-15T00:18:21;-0.40;73.00
810;DHT22;387;48.772;9.186;2024-01-15T00:20:47;-0.40;73.20
810;DHT22;387;48.772;9.186;2024-01-15T00:23:12;-0.50;73.20
810;DHT22;387;48.772;9.186;2024-01-15T00:25:38;-0.50;73.30
810;DHT22;387;48.772;9.186;2024-01-15T00:28:04;-0.50;73.50
810;DHT22;387;48.772;9.186;2024-01-15T00:30:29;-0.60;73.60
810;DHT22;387;48.772;9.186;2024-01-15T00:32:55;-0.60;73.70
810;DHT22;387;48.772;9.186;2024-01-15T00:35:20;-0.60;73.90
810;DHT22;387;48.772;9.186;2024-01-15T00:37:46;-0.60;74.00
810;DHT22;387;48.772;9.186;2024-01-15T00:40:11;-0.60;74.00
810;DHT22;387;48.772;9.186;2024-01-15T00:42:37;-0.70;74.00
810;DHT22;387;48.772;9.186;2024-01-15T00:45:03;-0.70;74.50
810;DHT22;387;48.772;9.186;2024-01-15T00:47:30;-0.70;74.60
810;DHT22;387;48.772;9.186;2024-01-15T00:49:56;-0.70;74.60
810;DHT22;387;48.772;9.186;2024-01-15T00:52:21;-0.70;74.60
810;DHT22;387;48.772;9.186;2024-01-15T00:54:47;-0.70;74.90
810;DHT22;387;48.772;9.186;2024-01-15T00:57:12;-0.70;74.90
810;DHT22;387;48.772;9.186;2024-01-15T00:59:38;-0.70;75.20
810;DHT22;387;48.772;9.186;2024-01-15T01:02:04;-0.70;75.10
810;DHT22;387;48.772;9.186;2024-01-15T01:04:30;-0.60;75.10
810;DHT22;387;48.772;9.186;2024-01-15T01:06:55;-0.60;75.20
810;DHT22;387;48.772;9.186;2024-01-15T01:09:21;-0.60;75.20
810;DHT22;387;48.772;9.186;2024-01-15T01:11:46;-0.60;75.20
810;DHT22;387;48.772;9.186;2024-01-15T01:14:12;-0.60;75.20
810;DHT22;387;48.772;9.186;2024-01-15T01:16:38;-0.60;75.40
810;DHT22;387;48.772;9.186;2024-01-15T01:19:05;-0.60;75.50
810;DHT22;387;48.772;9.186;2024-01-15T01:21:32;-0.50;75.50
810;DHT22;387;48.772;9.186;2024-01-15T01:23:58;-0.50;75.40
810;DHT22;387;48.772;9.186;2024-01-15T01:26:23;-0.50;75.50
810;DHT22;387;48.772;9.186;2024-01-15T01:28:50;-0.40;75.50
810;DHT22;387;48.772;9.186;2024-01-15T01:31:16;-0.40;75.50
810;DHT22;387;48.772;9.186;2024-01-15T01:33:42;-0.40;75.50
810;DHT22;387;48.772;9.186;2024-01-15T01:36:08;-0.30;75.50
810;DHT22;387;48.772;9.186;2024-01-15T01:38:35;-0.30;75.40
810;DHT22;387;48.772;9.186;2024-01-15T01:41:00;-0.30;75.20
810;DHT22;387;48.772;9.186;2024-01-15T01:43:26;-0.30;75.40
810;DHT22;387;48.772;9.186;2024-01-15T01:45:52;-0.30;75.10
810;DHT22;387;48.772;9.186;2024-01-15T01:48:18;-0.20;75.20
810;DHT22;387;48.772;9.186;2024-01-15T01:50:44;-0.20;75.20
810;DHT22;387;48.772;9.186;2024-01-15T01:53:10;-0.20;75.20
810;DHT22;387;48.772;9.186;2024-01-15T01:55:36;-0.20;75.20
810;DHT22;387;48.772;9.186;2024-01-15T01:58:04;-0.20;75.20
810;DHT22;387;48.772;9.186;2024-01-15T02:00:31;-0.10;75.20
810;DHT22;387;48.772;9.186;2024-01-15T02:02:57;-0.10;75.10
810;DHT22;387;48.772;9.186;2024-01-15T02:05:23;-0.10;75.20
810;DHT22;387;48.772;9.186;2024-01-15T02:07:48;-0.10;75.10
810;DHT22;387;48.772;9.186;2024-01-15T02:10:14;-0.10;75.20
810;DHT22;387;48.772;9.186;2024-01-15T02:12:40;-0.20;75.20
810;DHT22;387;48.772;9.186;2024-01-15T02:15:06;-0.20;75.40
810;DHT22;387;48.772;9.186;2024-01-15T02:17:31;-0.20;75.40
810;DHT22;387;48.772;9.186;2024-01-15T02:19:57;-0.20;75.40
810;DHT22;387;48.772;9.186;2024-01-15T02:22:22;-0.20;75.80
810;DHT22;387;48.772;9.186;2024-01-15T02:24:48;-0.20;75.90
810;DHT22;387;48.772;9.186;2024-01-15T02:27:14;-0.10;75.70
810;DHT22;387;48.772;9.186;2024-01-15T02:29:40;-0.10;75.50
810;DHT22;387;48.772;9.186;2024-01-15T02:32:06;-0.10;75.80
810;DHT22;387;48.772;9.186;2024-01-15T02:34:34;-0.10;75.50
810;DHT22;387;48.772;9.186;2024-01-15T02:36:59;-0.20;75.50
810;DHT22;387;48.772;9.186;2024-01-15T02:39:25;-0.30;75.90
810;DHT22;387;48.772;9.186;2024-01-15T02:41:50;-0.30;75.80
810;DHT22;387;48.772;9.186;2024-01-15T02:44:16;-0.30;76.20
810;DHT22;387;48.772;9.186;2024-01-15T02:46:42;-0.30;76.20
810;DHT22;387;48.772;9.186;2024-01-15T02:49:07;-0.30;76.10
810;DHT22;387;48.772;9.186;2024-01-15T02:51:33;-0.40;76.20
810;DHT22;387;48.772;9.186;2024-01-15T02:53:58;-0.40;76.20
810;DHT22;387;48.772;9.186;2024-01-15T02:56:24;-0.40;76.20
810;DHT22;387;48.772;9.186;2024-01-15T02:58:50;-0.40;76.40
810;DHT22;387;48.772;9.186;2024-01-15T03:01:18;-0.40;76.50
810;DHT22;387;48.772;9.186;2024-01-15T03:03:44;-0.40;76.40
810;DHT22;387;48.772;9.186;2024-01-15T03:06:10;-0.40;76.20
810;DHT22;387;48.772;9.186;2024-01-15T03:08:36;-0.40;76.50
810;DHT22;387;48.772;9.186;2024-01-15T03:11:01;-0.40;76.40
810;DHT22;387;48.772;9.186;2024-01-15T03:13:27;-0.60;76.50
810;DHT22;387;48.772;9.186;2024-01-15T03:15:52;-0.50;76.80
810;DHT22;387;48.772;9.186;2024-01-15T03:18:18;-0.50;77.00
810;DHT22;387;48.772;9.186;2024-01-15T03:20:44;-0.60;77.10
810;DHT22;387;48.772;9.186;2024-01-15T03:23:10;-0.60;77.30
810;DHT22;387;48.772;9.186;2024-01-15T03:25:36;-0.60;77.40
810;DHT22;387;48.772;9.186;2024-01-15T03:28:01;-0.60;77.40
810;DHT22;387;48.772;9.186;2024-01-15T03:30:27;-0.60;77.40
810;DHT22;387;48.772;9.186;2024-01-15T03:32:53;-0.60;77.40
810;DHT22;387;48.772;9.186;2024-01-15T03:35:18;-0.60;77.30
810;DHT22;387;48.772;9.186;2024-01-15T03:37:44;-0.60;77.30
810;DHT22;387;48.772;9.186;2024-01-15T03:40:10;-0.60;77.30
810;DHT22;387;48.772;9.186;2024-01-15T03:42:36;-0.60;77.30
810;DHT22;387;48.772;9.186;2024-01-15T03:45:01;-0.60;77.40
810;DHT22;387;48.772;9.186;2024-01-15T03:47:28;-0.70;77.40
810;DHT22;387;48.772;9.186;2024-01-15T03:49:53;-0.60;77.70
810;DHT22;387;48.772;9.186;2024-01-15T03:52:19;-0.60;77.60
810;DHT22;387;48.772;9.186;2024-01-15T03:54:44;-0.50;77.40
810;DHT22;387;48.772;9.186;2024-01-15T03:57:10;-0.50;77.30
810;DHT22;387;48.772;9.186;2024-01-15T03:59:36;-0.50;77.30
810;DHT22;387;48.772;9.186;2024-01-15T04:02:01;-0.50;77.30
810;DHT22;387;48.772;9.186;2024-01-15T04:04:27;-0.50;77.30
810;DHT22;387;48.772;9.186;2024-01-15T04:06:52;-0.30;77.60
810;DHT22;387;48.772;9.186;2024-01-15T04:09:18;-0.20;76.80
810;DHT22;387;48.772;9.186;2024-01-15T04:11:44;-0.30;76.70
810;DHT22;387;48.772;9.186;2024-01-15T04:14:09;-0.30;76.80
810;DHT22;387;48.772;9.186;2024-01-15T04:16:35;-0.10;76.70
810;DHT22;387;48.772;9.186;2024-01-15T04:19:00;0.00;76.20
810;DHT22;387;48.772;9.186;2024-01-15T04:21:26;0.00;75.80
810;DHT22;387;48.772;9.186;2024-01-15T04:23:53;0.10;75.70
810;DHT22;387;48.772;9.186;2024-01-15T04:26:18;0.10;75.70
810;DHT22;387;48.772;9.186;2024-01-15T04:28:44;0.00;75.70
810;DHT22;387;48.772;9.186;2024-01-15T04:31:09;0.20;75.70
810;DHT22;387;48.772;9.186;2024-01-15T04:33:35;0.20;75.20
810;DHT22;387;48.772;9.186;2024-01-15T04:36:04;0.20;75.20
810;DHT22;387;48.772;9.186;2024-01-15T04:38:30;0.30;75.50
810;DHT22;387;48.772;9.186;2024-01-15T04:40:57;0.40;75.10
810;DHT22;387;48.772;9.186;2024-01-15T04:43:23;0.40;74.80
810;DHT22;387;48.772;9.186;2024-01-15T04:45:48;0.40;74.80
810;DHT22;387;48.772;9.186;2024-01-15T04:48:14;0.40;74.90
810;DHT22;387;48.772;9.186;2024-01-15T04:50:40;0.40;74.90
810;DHT22;387;48.772;9.186;2024-01-15T04:53:05;0.40;74.80
810;DHT22;387;48.772;9.186;2024-01-15T04:55:31;0.40;74.60
810;DHT22;387;48.772;9.186;2024-01-15T04:57:56;0.50;74.80
810;DHT22;387;48.772;9.186;2024-01-15T05:00:22;0.50;74.60
810;DHT22;387;48.772;9.186;2024-01-15T05:02:47;0.50;74.80
810;DHT22;387;48.772;9.186;2024-01-15T05:05:13;0.50;74.60
810;DHT22;387;48.772;9.186;2024-01-15T05:07:39;0.50;74.80
810;DHT22;387;48.772;9.186;2024-01-15T05:10:05;0.50;74.90
810;DHT22;387;48.772;9.186;2024-01-15T05:12:30;0.50;74.90
810;DHT22;387;48.772;9.186;2024-01-15T05:14:56;0.50;74.90
810;DHT22;387;48.772;9.186;2024-01-15T05:17:21;0.50;75.10
810;DHT22;387;48.772;9.186;2024-01-15T05:19:47;0.50;75.40
810;DHT22;387;48.772;9.186;2024-01-15T05:22:13;0.50;75.50
810;DHT22;387;48.772;9.186;2024-01-15T05:24:38;0.50;75.50
810;DHT22;387;48.772;9.186;2024-01-15T05:27:04;0.40;75.70
810;DHT22;387;48.772;9.186;2024-01-15T05:29:29;0.40;75.90
810;DHT22;387;48.772;9.186;2024-01-15T05:31:55;0.40;75.70
810;DHT22;387;48.772;9.186;2024-01-15T05:34:20;0.40;75.70
810;DHT22;387;48.772;9.186;2024-01-15T05:36:46;0.50;75.90
810;DHT22;387;48.772;9.186;2024-01-15T05:39:13;0.50;75.90
810;DHT22;387;48.772;9.186;2024-01-15T05:41:38;0.50;75.70
810;DHT22;387;48.772;9.186;2024-01-15T05:44:04;0.50;75.70
810;DHT22;387;48.772;9.186;2024-01-15T05:46:30;0.50;75.70
810;DHT22;387;48.772;9.186;2024-01-15T05:48:55;0.50;75.70
810;DHT22;387;48.772;9.186;2024-01-15T05:51:21;0.50;75.70
810;DHT22;387;48.772;9.186;2024-01-15T05:53:47;0.50;75.50
810;DHT22;387;48.772;9.186;2024-01-15T05:56:12;0.50;75.40
810;DHT22;387;48.772;9.186;2024-01-15T05:58:38;0.50;75.40
810;DHT22;387;48.772;9.186;2024-01-15T06:01:03;0.50;75.40
810;DHT22;387;48.772;9.186;2024-01-15T06:03:29;0.50;75.40
810;DHT22;387;48.772;9.186;2024-01-15T06:05:55;0.60;74.90
810;DHT22;387;48.772;9.186;2024-01-15T06:08:20;0.60;74.90
810;DHT22;387;48.772;9.186;2024-01-15T06:10:46;0.60;74.60
810;DHT22;387;48.772;9.186;2024-01-15T06:13:11;0.60;74.80
810;DHT22;387;48.772;9.186;2024-01-15T06:15:38;0.60;74.60
810;DHT22;387;48.772;9.186;2024-01-15T06:18:04;0.60;74.60
810;DHT22;387;48.772;9.186;2024-01-15T06:20:31;0.60;74.60
810;DHT22;387;48.772;9.186;2024-01-15T06:22:57;0.60;74.60
810;DHT22;387;48.772;9.186;2024-01-15T06:25:22;0.60;74.60
810;DHT22;387;48.772;9.186;2024-01-15T06:27:48;0.60;74.50
810;DHT22;387;48.772;9.186;2024-01-15T06:30:14;0.60;74.50
810;DHT22;387;48.772;9.186;2024-01-15T06:32:39;0.60;74.60
810;DHT22;387;48.772;9.186;2024-01-15T06:35:06;0.60;74.60
810;DHT22;387;48.772;9.186;2024-01-15T06:37:31;0.60;74.60
810;DHT22;387;48.772;9.186;2024-01-15T06:39:58;0.60;74.60
810;DHT22;387;48.772;9.186;2024-01-15T06:42:24;0.60;74.80
810;DHT22;387;48.772;9.186;2024-01-15T06:44:50;0.60;74.90
810;DHT22;387;48.772;9.186;2024-01-15T06:47:15;0.60;74.90
810;DHT22;387;48.772;9.186;2024-01-15T06:49:42;0.60;75.10
810;DHT22;387;48.772;9.186;2024-01-15T06:52:08;0.60;75.20
810;DHT22;387;48.772;9.186;2024-01-15T06:54:34;0.60;75.10
810;DHT22;387;48.772;9.186;2024-01-15T06:56:59;0.50;75.20
810;DHT22;387;48.772;9.186;2024-01-15T06:59:25;0.50;75.20
810;DHT22;387;48.772;9.186;2024-01-15T07:01:50;0.50;75.20
810;DHT22;387;48.772;9.186;2024-01-15T07:04:16;0.60;75.20
810;DHT22;387;48.772;9.186;2024-01-15T07:06:41;0.60;74.90
810;DHT22;387;48.772;9.186;2024-01-15T07:09:07;0.60;74.80
810;DHT22;387;48.772;9.186;2024-01-15T07:11:34;0.60;74.50
810;DHT22;387;48.772;9.186;2024-01-15T07:13:59;0.70;74.50
810;DHT22;387;48.772;9.186;2024-01-15T07:16:25;0.70;74.30
810;DHT22;387;48.772;9.186;2024-01-15T07:18:51;0.70;74.00
810;DHT22;387;48.772;9.186;2024-01-15T07:21:16;0.70;73.90
810;DHT22;387;48.772;9.186;2024-01-15T07:23:42;0.70;73.60
810;DHT22;387;48.772;9.186;2024-01-15T07:26:08;0.70;73.60
810;DHT22;387;48.772;9.186;2024-01-15T07:28:33;0.70;73.50
810;DHT22;387;48.772;9.186;2024-01-15T07:30:59;0.70;73.50
810;DHT22;387;48.772;9.186;2024-01-15T07:33:26;0.80;73.60
810;DHT22;387;48.772;9.186;2024-01-15T07:35:52;0.80;73.60
810;DHT22;387;48.772;9.186;2024-01-15T07:38:18;0.70;73.50
810;DHT22;387;48.772;9.186;2024-01-15T07:40:43;0.80;73.50
810;DHT22;387;48.772;9.186;2024-01-15T07:43:09;0.70;73.50
810;DHT22;387;48.772;9.186;2024-01-15T07:45:35;0.70;73.50
810;DHT22;387;48.772;9.186;2024-01-15T07:48:01;0.80;73.50
810;DHT22;387;48.772;9.186;2024-01-15T07:50:27;0.80;73.30
810;DHT22;387;48.772;9.186;2024-01-15T07:52:52;0.90;73.20
810;DHT22;387;48.772;9.186;2024-01-15T07:55:18;0.90;72.90
810;DHT22;387;48.772;9.186;2024-01-15T07:57:44;0.90;72.90
810;DHT22;387;48.772;9.186;2024-01-15T08:00:10;1.00;72.90
810;DHT22;387;48.772;9.186;2024-01-15T08:02:36;1.00;72.10
810;DHT22;387;48.772;9.186;2024-01-15T08:05:02;1.00;72.00
810;DHT22;387;48.772;9.186;2024-01-15T08:07:27;1.00;72.00
810;DHT22;387;48.772;9.186;2024-01-15T08:09:53;1.00;72.00
810;DHT22;387;48.772;9.186;2024-01-15T08:12:19;1.00;72.10
810;DHT22;387;48.772;9.186;2024-01-15T08:14:44;1.10;71.80
810;DHT22;387;48.772;9.186;2024-01-15T08:17:11;1.10;71.60
810;DHT22;387;48.772;9.186;2024-01-15T08:19:36;1.10;71.60
810;DHT22;387;48.772;9.186;2024-01-15T08:22:02;1.00;71.40
810;DHT22;387;48.772;9.186;2024-01-15T08:24:27;1.00;71.40
810;DHT22;387;48.772;9.186;2024-01-15T08:26:54;1.00;71.40
810;DHT22;387;48.772;9.186;2024-01-15T08:29:19;1.00;71.30
810;DHT22;387;48.772;9.186;2024-01-15T08:31:46;1.00;71.30
810;DHT22;387;48.772;9.186;2024-01-15T08:34:12;1.00;71.30
810;DHT22;387;48.772;9.186;2024-01-15T08:36:37;1.10;71.40
810;DHT22;387;48.772;9.186;2024-01-15T08:39:03;1.10;71.10
810;DHT22;387;48.772;9.186;2024-01-15T08:41:31;1.20;71.10
810;DHT22;387;48.772;9.186;2024-01-15T08:43:57;1.20;70.80
810;DHT22;387;48.772;9.186;2024-01-15T08:46:23;1.10;70.80
810;DHT22;387;48.772;9.186;2024-01-15T08:48:49;1.20;71.00
810;DHT22;387;48.772;9.186;2024-01-15T08:51:15;1.30;71.10
810;DHT22;387;48.772;9.186;2024-01-15T08:53:40;1.30;71.00
810;DHT22;387;48.772;9.186;2024-01-15T08:56:06;1.40;71.00
810;DHT22;387;48.772;9.186;2024-01-15T08:58:32;1.50;70.70
810;DHT22;387;48.772;9.186;2024-01-15T09:00:59;1.50;70.10
810;DHT22;387;48.772;9.186;2024-01-15T09:03:25;1.50;69.80
810;DHT22;387;48.772;9.186;2024-01-15T09:05:51;1.50;69.90
810;DHT22;387;48.772;9.186;2024-01-15T09:08:16;1.50;70.10
810;DHT22;387;48.772;9.186;2024-01-15T09:10:42;1.50;69.90
810;DHT22;387;48.772;9.186;2024-01-15T09:13:08;1.60;69.90
810;DHT22;387;48.772;9.186;2024-01-15T09:15:33;1.70;69.50
810;DHT22;387;48.772;9.186;2024-01-15T09:17:59;1.70;69.50
810;DHT22;387;48.772;9.186;2024-01-15T09:20:27;1.80;69.40
810;DHT22;387;48.772;9.186;2024-01-15T09:22:53;1.80;69.80
810;DHT22;387;48.772;9.186;2024-01-15T09:25:19;1.80;68.30
810;DHT22;387;48.772;9.186;2024-01-15T09:27:45;1.80;68.60
810;DHT22;387;48.772;9.186;2024-01-15T09:30:11;1.90;68.60
810;DHT22;387;48.772;9.186;2024-01-15T09:32:36;1.90;68.30
810;DHT22;387;48.772;9.186;2024-01-15T09:35:02;1.90;68.50
810;DHT22;387;48.772;9.186;2024-01-15T09:37:28;2.00;68.50
810;DHT22;387;48.772;9.186;2024-01-15T09:39:53;2.10;68.30
810;DHT22;387;48.772;9.186;2024-01-15T09:42:22;2.10;68.20
810;DHT22;387;48.772;9.186;2024-01-15T09:44:48;2.00;68.00
810;DHT22;387;48.772;9.186;2024-01-15T09:47:15;2.00;68.50
810;DHT22;387;48.772;9.186;2024-01-15T09:49:41;2.00;68.50
810;DHT22;387;48.772;9.186;2024-01-15T09:52:07;2.00;68.60
810;DHT22;387;48.772;9.186;2024-01-15T09:54:33;2.00;68.60
810;DHT22;387;48.772;9.186;2024-01-15T09:57:00;2.10;68.80
810;DHT22;387;48.772;9.186;2024-01-15T09:59:27;2.20;68.60
810;DHT22;387;48.772;9.186;2024-01-15T10:01:53;2.10;68.80
810;DHT22;387;48.772;9.186;2024-01-15T10:04:21;2.10;68.90
810;DHT22;387;48.772;9.186;2024-01-15T10:06:47;2.20;68.80
810;DHT22;387;48.772;9.186;2024-01-15T10:09:14;2.20;69.10
810;DHT22;387;48.772;9.186;2024-01-15T10:11:43;2.10;68.80
810;DHT22;387;48.772;9.186;2024-01-15T10:14:12;2.10;69.20
810;DHT22;387;48.772;9.186;2024-01-15T10:16:41;2.20;68.90
810;DHT22;387;48.772;9.186;2024-01-15T10:19:08;2.20;69.20
810;DHT22;387;48.772;9.186;2024-01-15T10:21:34;2.20;69.10
810;DHT22;387;48.772;9.186;2024-01-15T10:24:01;2.30;68.60
810;DHT22;387;48.772;9.186;2024-01-15T10:26:28;2.30;68.60
810;DHT22;387;48.772;9.186;2024-01-15T10:28:54;2.20;68.80
810;DHT22;387;48.772;9.186;2024-01-15T10:31:20;2.20;68.80
810;DHT22;387;48.772;9.186;2024-01-15T10:33:50;2.20;68.80
810;DHT22;387;48.772;9.186;2024-01-15T10:36:16;2.20;68.90
810;DHT22;387;48.772;9.186;2024-01-15T10:38:46;2.20;69.10
810;DHT22;387;48.772;9.186;2024-01-15T10:41:12;2.20;69.10
810;DHT22;387;48.772;9.186;2024-01-15T10:43:37;2.20;69.10
810;DHT22;387;48.772;9.186;2024-01-15T10:46:03;2.10;68.90
810;DHT22;387;48.772;9.186;2024-01-15T10:48:30;2.10;69.10
810;DHT22;387;48.772;9.186;2024-01-15T10:50:59;2.10;69.10
810;DHT22;387;48.772;9.186;2024-01-15T10:53:25;2.10;69.20
810;DHT22;387;48.772;9.186;2024-01-15T10:55:51;2.20;69.20
810;DHT22;387;48.772;9.186;2024-01-15T10:58:20;2.30;69.20
810;DHT22;387;48.772;9.186;2024-01-15T11:00:47;2.30;69.20
810;DHT22;387;48.772;9.186;2024-01-15T11:03:13;2.30;68.80
810;DHT22;387;48.772;9.186;2024-01-15T11:05:42;2.30;68.80
810;DHT22;387;48.772;9.186;2024-01-15T11:08:08;2.40;68.80
810;DHT22;387;48.772;9.186;2024-01-15T11:10:47;2.30;69.10
810;DHT22;387;48.772;9.186;2024-01-15T11:18:34;2.20;69.90
810;DHT22;387;48.772;9.186;2024-01-15T11:23:57;2.40;70.10
810;DHT22;387;48.772;9.186;2024-01-15T11:26:38;2.40;70.50
810;DHT22;387;48.772;9.186;2024-01-15T11:29:32;2.10;71.60
810;DHT22;387;48.772;9.186;2024-01-15T11:34:51;2.00;71.80
810;DHT22;387;48.772;9.186;2024-01-15T11:37:18;2.00;72.10
810;DHT22;387;48.772;9.186;2024-01-15T11:39:45;2.00;72.00
810;DHT22;387;48.772;9.186;2024-01-15T11:42:12;2.00;72.30
810;DHT22;387;48.772;9.186;2024-01-15T11:44:39;2.00;72.60
810;DHT22;387;48.772;9.186;2024-01-15T11:47:09;2.00;72.70
810;DHT22;387;48.772;9.186;2024-01-15T11:52:11;1.90;73.60
810;DHT22;387;48.772;9.186;2024-01-15T11:54:38;1.80;74.30
810;DHT22;387;48.772;9.186;2024-01-15T11:57:10;1.80;74.60
810;DHT22;387;48.772;9.186;2024-01-15T11:59:41;1.80;74.90
810;DHT22;387;48.772;9.186;2024-01-15T12:02:07;1.70;74.80
810;DHT22;387;48.772;9.186;2024-01-15T12:04:32;1.70;74.90
810;DHT22;387;48.772;9.186;2024-01-15T12:06:58;1.70;75.20
810;DHT22;387;48.772;9.186;2024-01-15T12:09:24;1.80;74.90
810;DHT22;387;48.772;9.186;2024-01-15T12:11:57;1.80;75.10
810;DHT22;387;48.772;9.186;2024-01-15T12:14:25;1.90;75.10
810;DHT22;387;48.772;9.186;2024-01-15T12:16:52;1.90;74.60
810;DHT22;387;48.772;9.186;2024-01-15T12:19:19;1.90;74.50
810;DHT22;387;48.772;9.186;2024-01-15T12:21:45;1.80;75.80
810;DHT22;387;48.772;9.186;2024-01-15T12:24:10;1.60;77.30
810;DHT22;387;48.772;9.186;2024-01-15T12:26:36;1.60;78.10
810;DHT22;387;48.772;9.186;2024-01-15T12:29:06;1.50;79.50
810;DHT22;387;48.772;9.186;2024-01-15T12:31:33;1.40;80.50
810;DHT22;387;48.772;9.186;2024-01-15T12:33:59;1.20;81.80
810;DHT22;387;48.772;9.186;2024-01-15T12:36:26;1.10;82.40
810;DHT22;387;48.772;9.186;2024-01-15T12:38:52;1.00;83.30
810;DHT22;387;48.772;9.186;2024-01-15T12:41:19;1.00;84.30
810;DHT22;387;48.772;9.186;2024-01-15T12:43:44;0.90;85.20
810;DHT22;387;48.772;9.186;2024-01-15T12:46:10;0.80;85.60
810;DHT22;387;48.772;9.186;2024-01-15T12:48:36;0.80;86.20
810;DHT22;387;48.772;9.186;2024-01-15T12:51:06;0.70;86.60
810;DHT22;387;48.772;9.186;2024-01-15T12:53:31;0.70;86.90
810;DHT22;387;48.772;9.186;2024-01-15T12:55:57;0.70;87.30
810;DHT22;387;48.772;9.186;2024-01-15T12:58:22;0.60;88.00
810;DHT22;387;48.772;9.186;2024-01-15T13:00:48;0.60;88.40
810;DHT22;387;48.772;9.186;2024-01-15T13:03:14;0.70;88.60
810;DHT22;387;48.772;9.186;2024-01-15T13:05:40;0.70;88.40
810;DHT22;387;48.772;9.186;2024-01-15T13:08:06;0.70;88.10
810;DHT22;387;48.772;9.186;2024-01-15T13:10:32;0.80;88.00
810;DHT22;387;48.772;9.186;2024-01-15T13:12:58;0.80;87.30
810;DHT22;387;48.772;9.186;2024-01-15T13:15:24;0.90;86.90
810;DHT22;387;48.772;9.186;2024-01-15T13:17:49;0.90;86.80
810;DHT22;387;48.772;9.186;2024-01-15T13:20:15;0.90;87.00
810;DHT22;387;48.772;9.186;2024-01-15T13:22:41;0.90;87.10
810;DHT22;387;48.772;9.186;2024-01-15T13:25:09;0.90;87.30
810;DHT22;387;48.772;9.186;2024-01-15T13:27:37;0.90;87.10
810;DHT22;387;48.772;9.186;2024-01-15T13:30:03;0.90;87.30
810;DHT22;387;48.772;9.186;2024-01-15T13:32:30;0.90;87.40
810;DHT22;387;48.772;9.186;2024-01-15T13:34:56;0.90;87.10
810;DHT22;387;48.772;9.186;2024-01-15T13:37:22;0.90;87.00
810;DHT22;387;48.772;9.186;2024-01-15T13:39:51;1.00;87.10
810;DHT22;387;48.772;9.186;2024-01-15T13:42:21;1.00;87.10
810;DHT22;387;48.772;9.186;2024-01-15T13:44:52;1.00;87.30
810;DHT22;387;48.772;9.186;2024-01-15T13:47:18;1.00;87.30
810;DHT22;387;48.772;9.186;2024-01-15T13:49:44;1.00;87.30
810;DHT22;387;48.772;9.186;2024-01-15T13:52:09;1.00;87.10
810;DHT22;387;48.772;9.186;2024-01-15T13:54:35;1.10;87.10
810;DHT22;387;48.772;9.186;2024-01-15T13:57:00;1.00;87.00
810;DHT22;387;48.772;9.186;2024-01-15T13:59:26;1.00;87.10
810;DHT22;387;48.772;9.186;2024-01-15T14:01:53;1.10;87.30
810;DHT22;387;48.772;9.186;2024-01-15T14:04:19;1.10;87.30
810;DHT22;387;48.772;9.186;2024-01-15T14:06:45;1.20;87.30
810;DHT22;387;48.772;9.186;2024-01-15T14:09:10;1.10;87.10
810;DHT22;387;48.772;9.186;2024-01-15T14:11:37;1.10;87.10
810;DHT22;387;48.772;9.186;2024-01-15T14:14:03;1.10;87.40
810;DHT22;387;48.772;9.186;2024-01-15T14:16:29;1.00;87.40
810;DHT22;387;48.772;9.186;2024-01-15T14:18:55;1.00;87.40
810;DHT22;387;48.772;9.186;2024-01-15T14:21:20;1.00;87.60
810;DHT22;387;48.772;9.186;2024-01-15T14:23:46;1.00;87.60
810;DHT22;387;48.772;9.186;2024-01-15T14:26:11;1.00;87.70
810;DHT22;387;48.772;9.186;2024-01-15T14:28:40;1.00;87.70
810;DHT22;387;48.772;9.186;2024-01-15T14:31:06;1.00;87.40
810;DHT22;387;48.772;9.186;2024-01-15T14:33:32;1.00;87.30
810;DHT22;387;48.772;9.186;2024-01-15T14:35:57;1.00;85.90
810;DHT22;387;48.772;9.186;2024-01-15T14:38:23;1.00;85.00
810;DHT22;387;48.772;9.186;2024-01-15T14:40:51;1.00;84.30
810;DHT22;387;48.772;9.186;2024-01-15T14:43:17;1.10;84.00
810;DHT22;387;48.772;9.186;2024-01-15T14:45:43;1.10;83.60
810;DHT22;387;48.772;9.186;2024-01-15T14:48:09;1.20;83.40
810;DHT22;387;48.772;9.186;2024-01-15T14:50:34;1.10;83.40
810;DHT22;387;48.772;9.186;2024-01-15T14:53:00;1.10;83.40
810;DHT22;387;48.772;9.186;2024-01-15T14:55:25;1.10;83.70
810;DHT22;387;48.772;9.186;2024-01-15T14:57:52;1.00;83.80
810;DHT22;387;48.772;9.186;2024-01-15T15:00:18;1.00;84.30
810;DHT22;387;48.772;9.186;2024-01-15T15:02:44;0.90;84.40
810;DHT22;387;48.772;9.186;2024-01-15T15:05:11;1.00;84.40
810;DHT22;387;48.772;9.186;2024-01-15T15:07:38;1.00;84.30
810;DHT22;387;48.772;9.186;2024-01-15T15:10:04;0.90;84.10
810;DHT22;387;48.772;9.186;2024-01-15T15:12:31;0.80;84.10
810;DHT22;387;48.772;9.186;2024-01-15T15:14:58;0.80;83.70
810;DHT22;387;48.772;9.186;2024-01-15T15:17:23;0.90;84.00
810;DHT22;387;48.772;9.186;2024-01-15T15:19:49;0.90;83.80
810;DHT22;387;48.772;9.186;2024-01-15T15:22:16;0.90;83.80
810;DHT22;387;48.772;9.186;2024-01-15T15:24:41;1.00;84.10
810;DHT22;387;48.772;9.186;2024-01-15T15:27:07;1.00;82.80
810;DHT22;387;48.772;9.186;2024-01-15T15:29:33;1.10;82.80
810;DHT22;387;48.772;9.186;2024-01-15T15:32:00;1.10;82.20
810;DHT22;387;48.772;9.186;2024-01-15T15:34:26;1.00;82.20
810;DHT22;387;48.772;9.186;2024-01-15T15:36:51;1.10;82.40
810;DHT22;387;48.772;9.186;2024-01-15T15:39:17;1.00;80.80
810;DHT22;387;48.772;9.186;2024-01-15T15:41:44;1.00;80.50
810;DHT22;387;48.772;9.186;2024-01-15T15:44:09;1.10;80.20
810;DHT22;387;48.772;9.186;2024-01-15T15:46:35;1.00;80.20
810;DHT22;387;48.772;9.186;2024-01-15T15:49:01;1.00;79.60
810;DHT22;387;48.772;9.186;2024-01-15T15:51:34;1.00;79.70
810;DHT22;387;48.772;9.186;2024-01-15T15:54:01;0.90;79.50
810;DHT22;387;48.772;9.186;2024-01-15T15:56:27;0.90;79.50
810;DHT22;387;48.772;9.186;2024-01-15T15:58:52;0.90;79.90
810;DHT22;387;48.772;9.186;2024-01-15T16:01:18;1.00;79.60
810;DHT22;387;48.772;9.186;2024-01-15T16:03:43;0.90;79.00
810;DHT22;387;48.772;9.186;2024-01-15T16:06:09;0.90;78.70
810;DHT22;387;48.772;9.186;2024-01-15T16:08:35;1.00;78.70
810;DHT22;387;48.772;9.186;2024-01-15T16:11:00;1.00;78.60
810;DHT22;387;48.772;9.186;2024-01-15T16:13:26;0.90;78.40
810;DHT22;387;48.772;9.186;2024-01-15T16:15:51;1.00;78.90
810;DHT22;387;48.772;9.186;2024-01-15T16:18:17;1.00;78.90
810;DHT22;387;48.772;9.186;2024-01-15T16:20:43;1.00;78.40
810;DHT22;387;48.772;9.186;2024-01-15T16:23:08;1.00;77.60
810;DHT22;387;48.772;9.186;2024-01-15T16:25:34;0.90;77.30
810;DHT22;387;48.772;9.186;2024-01-15T16:28:04;0.90;77.30
810;DHT22;387;48.772;9.186;2024-01-15T16:30:29;0.90;77.30
810;DHT22;387;48.772;9.186;2024-01-15T16:32:55;0.90;77.30
810;DHT22;387;48.772;9.186;2024-01-15T16:35:21;0.80;77.10
810;DHT22;387;48.772;9.186;2024-01-15T16:37:47;0.80;77.30
810;DHT22;387;48.772;9.186;2024-01-15T16:40:14;0.70;77.30
810;DHT22;387;48.772;9.186;2024-01-15T16:42:39;0.70;77.30
810;DHT22;387;48.772;9.186;2024-01-15T16:45:05;0.80;77.80
810;DHT22;387;48.772;9.186;2024-01-15T16:47:31;0.70;77.60
810;DHT22;387;48.772;9.186;2024-01-15T16:49:57;0.70;77.80
810;DHT22;387;48.772;9.186;2024-01-15T16:52:23;0.60;76.70